sensor_id;sensor_type;location;lat;lon;timestamp;P1;durP1;ratioP1;P2;durP2;ratioP2
1350;SDS011;669;50.206;9.998;2023-03-01T00:01:45;18.63;;;12.30;;
1350;SDS011;669;50.206;9.998;2023-03-01T00:04:13;17.30;;;11.40;;
1350;SDS011;669;50.206;9.998;2023-03-01T00:06:41;17.97;;;12.07;;
1350;SDS011;669;50.206;9.998;2023-03-01T00:09:12;23.80;;;13.37;;
1350;SDS011;669;50.206;9.998;2023-03-01T00:11:40;19.60;;;13.50;;
1350;SDS011;669;50.206;9.998;2023-03-01T00:14:08;16.23;;;10.80;;
1350;SDS011;669;50.206;9.998;2023-03-01T00:16:38;17.73;;;12.67;;
1350;SDS011;669;50.206;9.998;2023-03-01T00:19:09;16.87;;;10.50;;
1350;SDS011;669;50.206;9.998;2023-03-01T00:21:39;15.37;;;10.40;;
1350;SDS011;669;50.206;9.998;2023-03-01T00:24:07;17.60;;;10.27;;
1350;SDS011;669;50.206;9.998;2023-03-01T00:26:36;16.23;;;11.30;;
1350;SDS011;669;50.206;9.998;2023-03-01T00:29:04;19.13;;;12.03;;
1350;SDS011;669;50.206;9.998;2023-03-01T00:31:33;18.90;;;13.33;;
1350;SDS011;669;50.206;9.998;2023-03-01T00:34:04;15.60;;;11.27;;
1350;SDS011;669;50.206;9.998;2023-03-01T00:36:33;15.80;;;11.13;;
1350;SDS011;669;50.206;9.998;2023-03-01T00:39:03;16.43;;;10.97;;
1350;SDS011;669;50.206;9.998;2023-03-01T00:41:32;17.20;;;11.77;;
1350;SDS011;669;50.206;9.998;2023-03-01T00:44:00;19.10;;;12.27;;
1350;SDS011;669;50.206;9.998;2023-03-01T00:46:29;22.03;;;11.87;;
1350;SDS011;669;50.206;9.998;2023-03-01T00:48:57;17.13;;;10.83;;
1350;SDS011;669;50.206;9.998;2023-03-01T00:51:29;17.37;;;12.53;;
1350;SDS011;669;50.206;9.998;2023-03-01T00:53:58;16.13;;;9.87;;
1350;SDS011;669;50.206;9.998;2023-03-01T00:56:28;16.60;;;10.37;;
1350;SDS011;669;50.206;9.998;2023-03-01T00:58:57;16.20;;;10.40;;
1350;SDS011;669;50.206;9.998;2023-03-01T01:01:25;14.40;;;9.73;;
1350;SDS011;669;50.206;9.998;2023-03-01T01:03:57;19.60;;;12.30;;
1350;SDS011;669;50.206;9.998;2023-03-01T01:06:27;16.90;;;12.17;;
1350;SDS011;669;50.206;9.998;2023-03-01T01:08:59;15.63;;;9.27;;
1350;SDS011;669;50.206;9.998;2023-03-01T01:11:28;17.37;;;10.93;;
1350;SDS011;669;50.206;9.998;2023-03-01T01:13:57;16.30;;;10.37;;
1350;SDS011;669;50.206;9.998;2023-03-01T01:16:26;15.80;;;10.30;;
1350;SDS011;669;50.206;9.998;2023-03-01T01:18:56;16.50;;;11.53;;
1350;SDS011;669;50.206;9.998;2023-03-01T01:21:25;15.53;;;10.30;;
1350;SDS011;669;50.206;9.998;2023-03-01T01:23:54;19.77;;;12.47;;
1350;SDS011;669;50.206;9.998;2023-03-01T01:26:23;18.37;;;10.83;;
1350;SDS011;669;50.206;9.998;2023-03-01T01:28:53;16.27;;;11.53;;
1350;SDS011;669;50.206;9.998;2023-03-01T01:31:22;15.90;;;10.63;;
1350;SDS011;669;50.206;9.998;2023-03-01T01:33:51;14.47;;;10.70;;
1350;SDS011;669;50.206;9.998;2023-03-01T01:36:19;14.33;;;9.77;;
1350;SDS011;669;50.206;9.998;2023-03-01T01:38:47;17.47;;;10.60;;
1350;SDS011;669;50.206;9.998;2023-03-01T01:41:17;13.37;;;8.87;;
1350;SDS011;669;50.206;9.998;2023-03-01T01:43:46;17.00;;;10.33;;
1350;SDS011;669;50.206;9.998;2023-03-01T01:46:17;16.10;;;10.83;;
1350;SDS011;669;50.206;9.998;2023-03-01T01:48:52;9.63;;;8.03;;
1350;SDS011;669;50.206;9.998;2023-03-01T01:51:25;10.43;;;7.87;;
1350;SDS011;669;50.206;9.998;2023-03-01T01:53:56;12.00;;;8.40;;
1350;SDS011;669;50.206;9.998;2023-03-01T01:56:29;16.23;;;11.03;;
1350;SDS011;669;50.206;9.998;2023-03-01T01:58:58;15.70;;;10.40;;
1350;SDS011;669;50.206;9.998;2023-03-01T02:01:26;11.97;;;9.73;;
1350;SDS011;669;50.206;9.998;2023-03-01T02:03:54;11.83;;;9.60;;
1350;SDS011;669;50.206;9.998;2023-03-01T02:06:24;17.30;;;11.60;;
1350;SDS011;669;50.206;9.998;2023-03-01T02:08:57;14.37;;;10.00;;
1350;SDS011;669;50.206;9.998;2023-03-01T02:11:30;15.57;;;10.60;;
1350;SDS011;669;50.206;9.998;2023-03-01T02:13:59;14.60;;;9.97;;
1350;SDS011;669;50.206;9.998;2023-03-01T02:16:27;15.53;;;10.73;;
1350;SDS011;669;50.206;9.998;2023-03-01T02:18:57;13.87;;;10.90;;
1350;SDS011;669;50.206;9.998;2023-03-01T02:21:31;19.27;;;12.47;;
1350;SDS011;669;50.206;9.998;2023-03-01T02:24:07;16.07;;;10.53;;
1350;SDS011;669;50.206;9.998;2023-03-01T02:26:48;19.87;;;12.23;;
1350;SDS011;669;50.206;9.998;2023-03-01T02:29:20;14.03;;;9.80;;
1350;SDS011;669;50.206;9.998;2023-03-01T02:31:49;13.90;;;10.50;;
1350;SDS011;669;50.206;9.998;2023-03-01T02:34:18;19.97;;;12.13;;
1350;SDS011;669;50.206;9.998;2023-03-01T02:36:48;18.60;;;12.40;;
1350;SDS011;669;50.206;9.998;2023-03-01T02:39:22;16.10;;;9.90;;
1350;SDS011;669;50.206;9.998;2023-03-01T02:41:54;18.87;;;11.37;;
1350;SDS011;669;50.206;9.998;2023-03-01T02:44:24;13.73;;;10.37;;
1350;SDS011;669;50.206;9.998;2023-03-01T02:46:53;14.97;;;10.80;;
1350;SDS011;669;50.206;9.998;2023-03-01T02:49:25;15.40;;;11.50;;
1350;SDS011;669;50.206;9.998;2023-03-01T02:52:00;18.87;;;11.97;;
1350;SDS011;669;50.206;9.998;2023-03-01T02:54:48;16.47;;;10.20;;
1350;SDS011;669;50.206;9.998;2023-03-01T02:57:20;15.77;;;9.80;;
1350;SDS011;669;50.206;9.998;2023-03-01T02:59:50;16.77;;;11.60;;
1350;SDS011;669;50.206;9.998;2023-03-01T03:02:20;16.90;;;10.50;;
1350;SDS011;669;50.206;9.998;2023-03-01T03:05:03;18.50;;;11.10;;
1350;SDS011;669;50.206;9.998;2023-03-01T03:07:34;20.20;;;11.40;;
1350;SDS011;669;50.206;9.998;2023-03-01T03:10:04;17.50;;;10.47;;
1350;SDS011;669;50.206;9.998;2023-03-01T03:12:34;15.77;;;10.63;;
1350;SDS011;669;50.206;9.998;2023-03-01T03:15:04;15.80;;;10.73;;
1350;SDS011;669;50.206;9.998;2023-03-01T03:17:35;17.43;;;11.00;;
1350;SDS011;669;50.206;9.998;2023-03-01T03:20:03;17.00;;;10.53;;
1350;SDS011;669;50.206;9.998;2023-03-01T03:22:37;15.57;;;10.60;;
1350;SDS011;669;50.206;9.998;2023-03-01T03:25:06;19.73;;;10.47;;
1350;SDS011;669;50.206;9.998;2023-03-01T03:27:36;17.23;;;11.30;;
1350;SDS011;669;50.206;9.998;2023-03-01T03:30:07;15.50;;;10.17;;
1350;SDS011;669;50.206;9.998;2023-03-01T03:32:38;13.43;;;10.27;;
1350;SDS011;669;50.206;9.998;2023-03-01T03:35:06;15.17;;;10.60;;
1350;SDS011;669;50.206;9.998;2023-03-01T03:37:36;18.40;;;9.80;;
1350;SDS011;669;50.206;9.998;2023-03-01T03:40:22;13.57;;;9.53;;
1350;SDS011;669;50.206;9.998;2023-03-01T03:42:50;16.27;;;10.80;;
1350;SDS011;669;50.206;9.998;2023-03-01T03:45:20;19.70;;;11.40;;
1350;SDS011;669;50.206;9.998;2023-03-01T03:47:48;15.80;;;9.97;;
1350;SDS011;669;50.206;9.998;2023-03-01T03:50:17;14.50;;;10.47;;
1350;SDS011;669;50.206;9.998;2023-03-01T03:52:45;20.60;;;11.50;;
1350;SDS011;669;50.206;9.998;2023-03-01T03:55:13;14.47;;;10.57;;
1350;SDS011;669;50.206;9.998;2023-03-01T03:57:46;14.63;;;11.13;;
1350;SDS011;669;50.206;9.998;2023-03-01T04:00:18;15.23;;;10.53;;
1350;SDS011;669;50.206;9.998;2023-03-01T04:02:50;15.90;;;9.90;;
1350;SDS011;669;50.206;9.998;2023-03-01T04:05:23;16.53;;;11.20;;
1350;SDS011;669;50.206;9.998;2023-03-01T04:07:51;17.07;;;11.53;;
1350;SDS011;669;50.206;9.998;2023-03-01T04:10:28;15.17;;;10.50;;
1350;SDS011;669;50.206;9.998;2023-03-01T04:12:57;22.27;;;11.00;;
1350;SDS011;669;50.206;9.998;2023-03-01T04:15:27;20.10;;;11.47;;
1350;SDS011;669;50.206;9.998;2023-03-01T04:17:55;14.47;;;10.43;;
1350;SDS011;669;50.206;9.998;2023-03-01T04:20:26;16.10;;;11.93;;
1350;SDS011;669;50.206;9.998;2023-03-01T04:22:59;13.70;;;10.23;;
1350;SDS011;669;50.206;9.998;2023-03-01T04:25:37;18.47;;;10.80;;
1350;SDS011;669;50.206;9.998;2023-03-01T04:28:06;16.67;;;11.13;;
1350;SDS011;669;50.206;9.998;2023-03-01T04:30:35;16.00;;;11.63;;
1350;SDS011;669;50.206;9.998;2023-03-01T04:33:05;18.57;;;11.60;;
1350;SDS011;669;50.206;9.998;2023-03-01T04:35:34;16.03;;;10.73;;
1350;SDS011;669;50.206;9.998;2023-03-01T04:38:03;17.50;;;11.00;;
1350;SDS011;669;50.206;9.998;2023-03-01T04:40:32;15.60;;;10.80;;
1350;SDS011;669;50.206;9.998;2023-03-01T04:43:01;17.30;;;11.30;;
1350;SDS011;669;50.206;9.998;2023-03-01T04:45:29;17.30;;;11.50;;
1350;SDS011;669;50.206;9.998;2023-03-01T04:48:00;19.00;;;10.33;;
1350;SDS011;669;50.206;9.998;2023-03-01T04:50:28;14.93;;;10.63;;
1350;SDS011;669;50.206;9.998;2023-03-01T04:52:56;20.07;;;11.37;;
1350;SDS011;669;50.206;9.998;2023-03-01T04:55:25;13.97;;;10.87;;
1350;SDS011;669;50.206;9.998;2023-03-01T04:57:53;17.77;;;10.40;;
1350;SDS011;669;50.206;9.998;2023-03-01T05:00:22;19.27;;;11.23;;
1350;SDS011;669;50.206;9.998;2023-03-01T05:02:52;17.80;;;11.90;;
1350;SDS011;669;50.206;9.998;2023-03-01T05:05:23;17.83;;;11.10;;
1350;SDS011;669;50.206;9.998;2023-03-01T05:07:54;18.03;;;11.83;;
1350;SDS011;669;50.206;9.998;2023-03-01T05:10:23;16.77;;;10.83;;
1350;SDS011;669;50.206;9.998;2023-03-01T05:12:51;17.80;;;11.83;;
1350;SDS011;669;50.206;9.998;2023-03-01T05:15:19;20.80;;;12.50;;
1350;SDS011;669;50.206;9.998;2023-03-01T05:17:51;20.33;;;11.63;;
1350;SDS011;669;50.206;9.998;2023-03-01T05:20:20;14.80;;;10.87;;
1350;SDS011;669;50.206;9.998;2023-03-01T05:22:50;21.03;;;13.00;;
1350;SDS011;669;50.206;9.998;2023-03-01T05:25:19;17.83;;;11.23;;
1350;SDS011;669;50.206;9.998;2023-03-01T05:27:47;18.77;;;11.13;;
1350;SDS011;669;50.206;9.998;2023-03-01T05:30:15;19.73;;;12.83;;
1350;SDS011;669;50.206;9.998;2023-03-01T05:32:45;17.83;;;12.00;;
1350;SDS011;669;50.206;9.998;2023-03-01T05:35:15;18.70;;;13.13;;
1350;SDS011;669;50.206;9.998;2023-03-01T05:37:46;20.83;;;13.23;;
1350;SDS011;669;50.206;9.998;2023-03-01T05:40:16;23.27;;;13.63;;
1350;SDS011;669;50.206;9.998;2023-03-01T05:42:46;18.73;;;12.90;;
1350;SDS011;669;50.206;9.998;2023-03-01T05:45:15;19.57;;;14.27;;
1350;SDS011;669;50.206;9.998;2023-03-01T05:47:45;19.30;;;14.27;;
1350;SDS011;669;50.206;9.998;2023-03-01T05:50:15;21.60;;;12.90;;
1350;SDS011;669;50.206;9.998;2023-03-01T05:52:47;21.92;;;16.10;;
1350;SDS011;669;50.206;9.998;2023-03-01T05:55:17;21.90;;;14.50;;
1350;SDS011;669;50.206;9.998;2023-03-01T05:57:47;18.23;;;12.70;;
1350;SDS011;669;50.206;9.998;2023-03-01T06:00:16;20.40;;;11.77;;
1350;SDS011;669;50.206;9.998;2023-03-01T06:02:46;19.13;;;13.13;;
1350;SDS011;669;50.206;9.998;2023-03-01T06:05:14;19.20;;;13.53;;
1350;SDS011;669;50.206;9.998;2023-03-01T06:07:42;21.90;;;14.17;;
1350;SDS011;669;50.206;9.998;2023-03-01T06:10:12;23.07;;;12.40;;
1350;SDS011;669;50.206;9.998;2023-03-01T06:12:41;17.10;;;12.23;;
1350;SDS011;669;50.206;9.998;2023-03-01T06:15:10;22.97;;;13.23;;
1350;SDS011;669;50.206;9.998;2023-03-01T06:17:40;21.93;;;14.43;;
1350;SDS011;669;50.206;9.998;2023-03-01T06:20:11;20.07;;;11.47;;
1350;SDS011;669;50.206;9.998;2023-03-01T06:22:40;28.33;;;14.90;;
1350;SDS011;669;50.206;9.998;2023-03-01T06:25:09;22.33;;;14.70;;
1350;SDS011;669;50.206;9.998;2023-03-01T06:27:40;18.87;;;12.60;;
1350;SDS011;669;50.206;9.998;2023-03-01T06:30:08;22.43;;;13.00;;
1350;SDS011;669;50.206;9.998;2023-03-01T06:32:38;18.20;;;12.50;;
1350;SDS011;669;50.206;9.998;2023-03-01T06:35:08;22.27;;;13.57;;
1350;SDS011;669;50.206;9.998;2023-03-01T06:37:37;19.87;;;12.30;;
1350;SDS011;669;50.206;9.998;2023-03-01T06:40:05;20.57;;;13.30;;
1350;SDS011;669;50.206;9.998;2023-03-01T06:42:38;18.80;;;12.83;;
1350;SDS011;669;50.206;9.998;2023-03-01T06:45:08;19.97;;;13.90;;
1350;SDS011;669;50.206;9.998;2023-03-01T06:47:37;21.00;;;13.73;;
1350;SDS011;669;50.206;9.998;2023-03-01T06:50:05;14.53;;;11.27;;
1350;SDS011;669;50.206;9.998;2023-03-01T06:52:34;19.67;;;12.87;;
1350;SDS011;669;50.206;9.998;2023-03-01T06:55:02;18.70;;;11.53;;
1350;SDS011;669;50.206;9.998;2023-03-01T06:57:30;17.00;;;11.43;;
1350;SDS011;669;50.206;9.998;2023-03-01T07:00:00;16.67;;;11.00;;
1350;SDS011;669;50.206;9.998;2023-03-01T07:02:28;16.23;;;11.17;;
1350;SDS011;669;50.206;9.998;2023-03-01T07:04:56;18.87;;;13.40;;
1350;SDS011;669;50.206;9.998;2023-03-01T07:07:29;15.97;;;11.57;;
1350;SDS011;669;50.206;9.998;2023-03-01T07:09:57;17.80;;;11.73;;
1350;SDS011;669;50.206;9.998;2023-03-01T07:12:24;18.57;;;11.50;;
1350;SDS011;669;50.206;9.998;2023-03-01T07:14:52;13.87;;;11.37;;
1350;SDS011;669;50.206;9.998;2023-03-01T07:17:22;16.77;;;11.20;;
1350;SDS011;669;50.206;9.998;2023-03-01T07:19:49;20.23;;;12.03;;
1350;SDS011;669;50.206;9.998;2023-03-01T07:22:17;18.37;;;13.27;;
1350;SDS011;669;50.206;9.998;2023-03-01T07:24:45;14.40;;;11.10;;
1350;SDS011;669;50.206;9.998;2023-03-01T07:27:13;15.70;;;11.30;;
1350;SDS011;669;50.206;9.998;2023-03-01T07:29:41;16.87;;;11.13;;
1350;SDS011;669;50.206;9.998;2023-03-01T07:32:09;16.67;;;10.40;;
1350;SDS011;669;50.206;9.998;2023-03-01T07:34:39;15.90;;;10.10;;
1350;SDS011;669;50.206;9.998;2023-03-01T07:37:07;15.30;;;10.77;;
1350;SDS011;669;50.206;9.998;2023-03-01T07:39:35;15.33;;;10.50;;
1350;SDS011;669;50.206;9.998;2023-03-01T07:42:03;16.90;;;12.00;;
1350;SDS011;669;50.206;9.998;2023-03-01T07:44:31;14.00;;;10.67;;
1350;SDS011;669;50.206;9.998;2023-03-01T07:46:59;15.30;;;11.83;;
1350;SDS011;669;50.206;9.998;2023-03-01T07:49:26;13.60;;;11.00;;
1350;SDS011;669;50.206;9.998;2023-03-01T07:51:56;13.50;;;9.93;;
1350;SDS011;669;50.206;9.998;2023-03-01T07:54:23;17.73;;;11.90;;
1350;SDS011;669;50.206;9.998;2023-03-01T07:56:52;16.77;;;10.63;;
1350;SDS011;669;50.206;9.998;2023-03-01T07:59:20;14.93;;;11.17;;
1350;SDS011;669;50.206;9.998;2023-03-01T08:01:49;14.93;;;9.80;;
1350;SDS011;669;50.206;9.998;2023-03-01T08:04:17;14.37;;;10.43;;
1350;SDS011;669;50.206;9.998;2023-03-01T08:06:45;11.60;;;10.43;;
1350;SDS011;669;50.206;9.998;2023-03-01T08:09:14;14.67;;;10.33;;
1350;SDS011;669;50.206;9.998;2023-03-01T08:11:42;14.43;;;11.53;;
1350;SDS011;669;50.206;9.998;2023-03-01T08:14:10;15.37;;;12.20;;
1350;SDS011;669;50.206;9.998;2023-03-01T08:16:38;15.83;;;12.50;;
1350;SDS011;669;50.206;9.998;2023-03-01T08:19:07;14.87;;;10.33;;
1350;SDS011;669;50.206;9.998;2023-03-01T08:21:36;15.27;;;10.57;;
1350;SDS011;669;50.206;9.998;2023-03-01T08:24:04;11.40;;;9.77;;
1350;SDS011;669;50.206;9.998;2023-03-01T08:26:35;17.03;;;10.70;;
1350;SDS011;669;50.206;9.998;2023-03-01T08:29:03;12.50;;;9.97;;
1350;SDS011;669;50.206;9.998;2023-03-01T08:31:32;13.00;;;9.80;;
1350;SDS011;669;50.206;9.998;2023-03-01T08:34:05;14.93;;;10.67;;
1350;SDS011;669;50.206;9.998;2023-03-01T08:36:35;14.03;;;11.07;;
1350;SDS011;669;50.206;9.998;2023-03-01T08:39:04;13.20;;;11.07;;
1350;SDS011;669;50.206;9.998;2023-03-01T08:41:33;13.10;;;10.07;;
1350;SDS011;669;50.206;9.998;2023-03-01T08:44:02;17.13;;;11.27;;
1350;SDS011;669;50.206;9.998;2023-03-01T08:46:31;14.37;;;10.50;;
1350;SDS011;669;50.206;9.998;2023-03-01T08:49:02;15.10;;;12.10;;
1350;SDS011;669;50.206;9.998;2023-03-01T08:51:31;15.33;;;12.00;;
1350;SDS011;669;50.206;9.998;2023-03-01T08:54:03;13.40;;;9.37;;
1350;SDS011;669;50.206;9.998;2023-03-01T08:56:31;15.73;;;10.93;;
1350;SDS011;669;50.206;9.998;2023-03-01T08:59:00;11.70;;;10.03;;
1350;SDS011;669;50.206;9.998;2023-03-01T09:01:28;12.70;;;10.73;;
1350;SDS011;669;50.206;9.998;2023-03-01T09:03:56;14.20;;;10.77;;
1350;SDS011;669;50.206;9.998;2023-03-01T09:06:24;12.97;;;10.97;;
1350;SDS011;669;50.206;9.998;2023-03-01T09:08:52;12.80;;;11.27;;
1350;SDS011;669;50.206;9.998;2023-03-01T09:11:21;10.87;;;9.70;;
1350;SDS011;669;50.206;9.998;2023-03-01T09:13:49;15.87;;;11.27;;
1350;SDS011;669;50.206;9.998;2023-03-01T09:16:19;18.20;;;12.73;;
1350;SDS011;669;50.206;9.998;2023-03-01T09:18:49;14.87;;;11.40;;
1350;SDS011;669;50.206;9.998;2023-03-01T09:21:18;12.70;;;11.30;;
1350;SDS011;669;50.206;9.998;2023-03-01T09:24:04;14.80;;;10.17;;
1350;SDS011;669;50.206;9.998;2023-03-01T09:26:33;12.60;;;11.30;;
1350;SDS011;669;50.206;9.998;2023-03-01T09:29:01;15.43;;;11.67;;
1350;SDS011;669;50.206;9.998;2023-03-01T09:31:30;16.33;;;12.33;;
1350;SDS011;669;50.206;9.998;2023-03-01T09:33:58;17.77;;;12.50;;
1350;SDS011;669;50.206;9.998;2023-03-01T09:36:26;14.00;;;11.33;;
1350;SDS011;669;50.206;9.998;2023-03-01T09:38:55;18.77;;;11.90;;
1350;SDS011;669;50.206;9.998;2023-03-01T09:41:28;11.47;;;10.37;;
1350;SDS011;669;50.206;9.998;2023-03-01T09:44:10;15.23;;;11.33;;
1350;SDS011;669;50.206;9.998;2023-03-01T09:46:47;14.40;;;12.10;;
1350;SDS011;669;50.206;9.998;2023-03-01T09:49:16;12.17;;;10.63;;
1350;SDS011;669;50.206;9.998;2023-03-01T09:51:50;14.03;;;11.30;;
1350;SDS011;669;50.206;9.998;2023-03-01T09:54:22;14.53;;;12.10;;
1350;SDS011;669;50.206;9.998;2023-03-01T09:56:57;19.53;;;13.10;;
1350;SDS011;669;50.206;9.998;2023-03-01T09:59:33;13.80;;;10.90;;
1350;SDS011;669;50.206;9.998;2023-03-01T10:02:29;12.50;;;11.03;;
1350;SDS011;669;50.206;9.998;2023-03-01T10:05:09;16.43;;;12.57;;
1350;SDS011;669;50.206;9.998;2023-03-01T10:08:01;14.10;;;11.60;;
1350;SDS011;669;50.206;9.998;2023-03-01T10:10:46;15.07;;;12.10;;
1350;SDS011;669;50.206;9.998;2023-03-01T10:13:16;16.50;;;12.57;;
1350;SDS011;669;50.206;9.998;2023-03-01T10:15:47;17.90;;;12.80;;
1350;SDS011;669;50.206;9.998;2023-03-01T10:18:22;13.27;;;10.70;;
1350;SDS011;669;50.206;9.998;2023-03-01T10:20:54;13.80;;;12.37;;
1350;SDS011;669;50.206;9.998;2023-03-01T10:23:25;16.40;;;13.40;;
1350;SDS011;669;50.206;9.998;2023-03-01T10:25:59;16.13;;;11.90;;
1350;SDS011;669;50.206;9.998;2023-03-01T10:28:36;19.30;;;11.87;;
1350;SDS011;669;50.206;9.998;2023-03-01T10:31:13;12.07;;;10.77;;
1350;SDS011;669;50.206;9.998;2023-03-01T10:33:46;11.37;;;9.50;;
1350;SDS011;669;50.206;9.998;2023-03-01T10:36:19;15.43;;;11.77;;
1350;SDS011;669;50.206;9.998;2023-03-01T10:38:48;15.23;;;11.57;;
1350;SDS011;669;50.206;9.998;2023-03-01T10:41:18;12.83;;;11.53;;
1350;SDS011;669;50.206;9.998;2023-03-01T10:43:47;16.30;;;12.50;;
1350;SDS011;669;50.206;9.998;2023-03-01T10:46:21;11.67;;;10.47;;
1350;SDS011;669;50.206;9.998;2023-03-01T10:51:47;13.40;;;10.67;;
1350;SDS011;669;50.206;9.998;2023-03-01T10:54:17;15.00;;;12.73;;
1350;SDS011;669;50.206;9.998;2023-03-01T10:56:47;16.73;;;11.30;;
1350;SDS011;669;50.206;9.998;2023-03-01T10:59:22;13.73;;;10.50;;
1350;SDS011;669;50.206;9.998;2023-03-01T11:02:14;14.23;;;12.20;;
1350;SDS011;669;50.206;9.998;2023-03-01T11:04:59;13.70;;;11.23;;
1350;SDS011;669;50.206;9.998;2023-03-01T11:07:29;13.60;;;11.20;;
1350;SDS011;669;50.206;9.998;2023-03-01T11:09:57;14.67;;;11.67;;
1350;SDS011;669;50.206;9.998;2023-03-01T11:12:24;14.60;;;11.33;;
1350;SDS011;669;50.206;9.998;2023-03-01T11:14:55;12.20;;;10.90;;
1350;SDS011;669;50.206;9.998;2023-03-01T11:17:25;13.40;;;10.87;;
1350;SDS011;669;50.206;9.998;2023-03-01T11:20:02;12.53;;;11.20;;
1350;SDS011;669;50.206;9.998;2023-03-01T11:22:42;14.47;;;11.67;;
1350;SDS011;669;50.206;9.998;2023-03-01T11:25:14;13.50;;;12.10;;
1350;SDS011;669;50.206;9.998;2023-03-01T11:27:44;13.37;;;11.50;;
1350;SDS011;669;50.206;9.998;2023-03-01T11:30:15;15.97;;;11.87;;
1350;SDS011;669;50.206;9.998;2023-03-01T11:32:50;15.07;;;11.43;;
1350;SDS011;669;50.206;9.998;2023-03-01T11:35:25;13.63;;;12.03;;
1350;SDS011;669;50.206;9.998;2023-03-01T11:37:58;13.20;;;10.83;;
1350;SDS011;669;50.206;9.998;2023-03-01T11:40:32;15.17;;;10.10;;
1350;SDS011;669;50.206;9.998;2023-03-01T11:43:05;14.33;;;10.73;;
1350;SDS011;669;50.206;9.998;2023-03-01T11:45:45;18.03;;;11.87;;
1350;SDS011;669;50.206;9.998;2023-03-01T11:48:28;14.53;;;10.97;;
1350;SDS011;669;50.206;9.998;2023-03-01T11:51:18;13.33;;;10.67;;
1350;SDS011;669;50.206;9.998;2023-03-01T11:53:54;13.07;;;10.57;;
1350;SDS011;669;50.206;9.998;2023-03-01T11:56:31;12.93;;;10.87;;
1350;SDS011;669;50.206;9.998;2023-03-01T11:59:03;12.13;;;9.97;;
1350;SDS011;669;50.206;9.998;2023-03-01T12:01:56;11.03;;;9.87;;
1350;SDS011;669;50.206;9.998;2023-03-01T12:04:52;11.00;;;9.90;;
1350;SDS011;669;50.206;9.998;2023-03-01T12:07:43;10.33;;;7.90;;
1350;SDS011;669;50.206;9.998;2023-03-01T12:10:23;13.23;;;9.67;;
1350;SDS011;669;50.206;9.998;2023-03-01T12:13:07;12.30;;;10.30;;
1350;SDS011;669;50.206;9.998;2023-03-01T12:15:49;11.03;;;9.40;;
1350;SDS011;669;50.206;9.998;2023-03-01T12:18:34;10.13;;;8.83;;
1350;SDS011;669;50.206;9.998;2023-03-01T12:21:21;11.43;;;9.20;;
1350;SDS011;669;50.206;9.998;2023-03-01T12:24:06;10.63;;;9.17;;
1350;SDS011;669;50.206;9.998;2023-03-01T12:27:12;9.03;;;8.13;;
1350;SDS011;669;50.206;9.998;2023-03-01T12:29:52;10.73;;;9.20;;
1350;SDS011;669;50.206;9.998;2023-03-01T12:32:29;8.63;;;7.73;;
1350;SDS011;669;50.206;9.998;2023-03-01T12:38:01;9.97;;;8.40;;
1350;SDS011;669;50.206;9.998;2023-03-01T12:40:50;10.33;;;9.10;;
1350;SDS011;669;50.206;9.998;2023-03-01T12:43:41;11.03;;;9.13;;
1350;SDS011;669;50.206;9.998;2023-03-01T12:46:21;8.90;;;7.90;;
1350;SDS011;669;50.206;9.998;2023-03-01T12:48:58;13.90;;;9.30;;
1350;SDS011;669;50.206;9.998;2023-03-01T12:51:31;9.77;;;7.70;;
1350;SDS011;669;50.206;9.998;2023-03-01T12:54:02;9.97;;;8.10;;
1350;SDS011;669;50.206;9.998;2023-03-01T12:56:39;9.00;;;8.00;;
1350;SDS011;669;50.206;9.998;2023-03-01T12:59:10;10.03;;;7.77;;
1350;SDS011;669;50.206;9.998;2023-03-01T13:01:44;8.50;;;7.57;;
1350;SDS011;669;50.206;9.998;2023-03-01T13:04:33;12.40;;;7.60;;
1350;SDS011;669;50.206;9.998;2023-03-01T13:07:11;8.00;;;7.27;;
1350;SDS011;669;50.206;9.998;2023-03-01T13:09:48;12.07;;;7.40;;
1350;SDS011;669;50.206;9.998;2023-03-01T13:12:51;7.33;;;6.63;;
1350;SDS011;669;50.206;9.998;2023-03-01T13:15:28;7.20;;;6.50;;
1350;SDS011;669;50.206;9.998;2023-03-01T13:18:03;7.63;;;6.63;;
1350;SDS011;669;50.206;9.998;2023-03-01T13:20:52;7.47;;;6.37;;
1350;SDS011;669;50.206;9.998;2023-03-01T13:23:26;5.90;;;5.33;;
1350;SDS011;669;50.206;9.998;2023-03-01T13:26:00;8.13;;;6.73;;
1350;SDS011;669;50.206;9.998;2023-03-01T13:28:40;9.33;;;8.33;;
1350;SDS011;669;50.206;9.998;2023-03-01T13:37:23;8.33;;;6.53;;
1350;SDS011;669;50.206;9.998;2023-03-01T13:39:55;7.17;;;6.30;;
1350;SDS011;669;50.206;9.998;2023-03-01T13:42:29;8.50;;;7.40;;
1350;SDS011;669;50.206;9.998;2023-03-01T13:45:12;8.03;;;6.80;;
1350;SDS011;669;50.206;9.998;2023-03-01T13:47:54;8.20;;;6.83;;
1350;SDS011;669;50.206;9.998;2023-03-01T13:50:25;6.43;;;5.63;;
1350;SDS011;669;50.206;9.998;2023-03-01T13:52:56;8.50;;;6.50;;
1350;SDS011;669;50.206;9.998;2023-03-01T13:55:30;10.30;;;6.20;;
1350;SDS011;669;50.206;9.998;2023-03-01T13:58:04;6.93;;;6.23;;
1350;SDS011;669;50.206;9.998;2023-03-01T14:00:45;7.40;;;6.60;;
1350;SDS011;669;50.206;9.998;2023-03-01T14:03:13;6.50;;;5.80;;
1350;SDS011;669;50.206;9.998;2023-03-01T14:05:44;6.70;;;5.83;;
1350;SDS011;669;50.206;9.998;2023-03-01T14:08:39;7.00;;;5.90;;
1350;SDS011;669;50.206;9.998;2023-03-01T14:11:13;7.73;;;6.97;;
1350;SDS011;669;50.206;9.998;2023-03-01T14:14:18;7.20;;;6.50;;
1350;SDS011;669;50.206;9.998;2023-03-01T14:17:03;7.10;;;6.40;;
1350;SDS011;669;50.206;9.998;2023-03-01T14:19:54;8.57;;;6.20;;
1350;SDS011;669;50.206;9.998;2023-03-01T14:22:24;6.67;;;5.93;;
1350;SDS011;669;50.206;9.998;2023-03-01T14:24:55;7.30;;;6.20;;
1350;SDS011;669;50.206;9.998;2023-03-01T14:27:25;8.60;;;6.43;;
1350;SDS011;669;50.206;9.998;2023-03-01T14:29:59;7.73;;;6.93;;
1350;SDS011;669;50.206;9.998;2023-03-01T14:32:29;8.27;;;6.00;;
1350;SDS011;669;50.206;9.998;2023-03-01T14:34:59;6.40;;;5.60;;
1350;SDS011;669;50.206;9.998;2023-03-01T14:37:29;9.33;;;6.50;;
1350;SDS011;669;50.206;9.998;2023-03-01T14:39:59;7.87;;;6.53;;
1350;SDS011;669;50.206;9.998;2023-03-01T14:42:29;6.70;;;5.43;;
1350;SDS011;669;50.206;9.998;2023-03-01T14:45:01;10.57;;;6.53;;
1350;SDS011;669;50.206;9.998;2023-03-01T14:47:32;9.67;;;7.47;;
1350;SDS011;669;50.206;9.998;2023-03-01T14:50:05;7.23;;;6.40;;
1350;SDS011;669;50.206;9.998;2023-03-01T14:52:36;8.40;;;6.40;;
1350;SDS011;669;50.206;9.998;2023-03-01T14:55:06;10.17;;;7.37;;
1350;SDS011;669;50.206;9.998;2023-03-01T14:57:43;7.53;;;6.77;;
1350;SDS011;669;50.206;9.998;2023-03-01T15:00:15;9.93;;;6.77;;
1350;SDS011;669;50.206;9.998;2023-03-01T15:02:48;10.67;;;8.30;;
1350;SDS011;669;50.206;9.998;2023-03-01T15:05:21;11.03;;;7.00;;
1350;SDS011;669;50.206;9.998;2023-03-01T15:07:52;9.87;;;6.90;;
1350;SDS011;669;50.206;9.998;2023-03-01T15:10:22;8.50;;;7.60;;
1350;SDS011;669;50.206;9.998;2023-03-01T15:12:51;9.70;;;7.90;;
1350;SDS011;669;50.206;9.998;2023-03-01T15:15:26;14.40;;;8.60;;
1350;SDS011;669;50.206;9.998;2023-03-01T15:18:05;11.03;;;8.40;;
1350;SDS011;669;50.206;9.998;2023-03-01T15:20:41;14.20;;;8.30;;
1350;SDS011;669;50.206;9.998;2023-03-01T15:23:19;9.80;;;7.90;;
1350;SDS011;669;50.206;9.998;2023-03-01T15:25:50;12.40;;;8.50;;
1350;SDS011;669;50.206;9.998;2023-03-01T15:28:24;12.70;;;8.33;;
1350;SDS011;669;50.206;9.998;2023-03-01T15:30:54;10.27;;;8.40;;
1350;SDS011;669;50.206;9.998;2023-03-01T15:33:33;8.83;;;7.53;;
1350;SDS011;669;50.206;9.998;2023-03-01T15:36:03;12.43;;;8.73;;
1350;SDS011;669;50.206;9.998;2023-03-01T15:39:00;12.43;;;9.20;;
1350;SDS011;669;50.206;9.998;2023-03-01T15:41:29;17.87;;;9.50;;
1350;SDS011;669;50.206;9.998;2023-03-01T15:43:58;12.10;;;8.70;;
1350;SDS011;669;50.206;9.998;2023-03-01T15:46:28;13.47;;;8.87;;
1350;SDS011;669;50.206;9.998;2023-03-01T15:49:01;14.03;;;9.60;;
1350;SDS011;669;50.206;9.998;2023-03-01T15:51:34;19.43;;;10.73;;